Terminal Aerodrome Forecast
Issued by NWS

Home | Current Version | Previous Version | Text Only | Print | Product List | Glossary On
Versions: 1 2 3 4 5 6 7 8 9 10 11 12 13 14 15 16 17 18 19
000
FTUS43 KDVN 151400 AAA
TAFBRL
TAF AMD
KBRL 151431Z 1515/1612 06004KT P6SM VCSH FEW030 OVC050
      TEMPO 1515/1516 3SM -SHRA BR BKN025 OVC040
     FM151800 34008KT P6SM OVC025
      TEMPO 1518/1520 -SHRA
     FM152300 34010KT P6SM BKN040
     FM160200 36004KT P6SM SCT250=

USA.gov is the U.S. government's official web portal to all federal, state and local government web resources and services.